Godman Army Air Field
KFTK : now visible

Airfield :











YOU CAN JOIN US ON...

 
LOGIN :

Register | Disclaimer

   EN    FR    IT 

 









Legend :    VFR   Marginal VFR   IFR   Intensive IFR   Very Intensive IFR
Visi :
Ceiling :
>= 8 km
>= 3000ft
5 to 8 km
1000 to 3000 ft
1500m to 5 km
500 to 1000 ft
800 to 1500m
200 to 500 ft
< 800m
< 200 ft
Symbols :   Thunderstorms  Fog  Heavy snow  Heavy precipitations  Wind > 20 kt






- Airport Elevation : 756 ft


KFTK - Godman Army Air Field

CURRENT METAR :
  • 211956Z AUTO 25003KT 10SM FEW013 SCT029 SCT042 BKN055 BKN070 06/M01 A3016 RMK AO2 RAB14E44RAB44E44 SLP221 P0000 T00601007 $

EXPIRED METARs :
  • 211929Z AUTO 34005KT 10SM -RA FEW008 SCT013 SCT019 BKN026 OVC038 04/00 A3018 RMK AO2 RAB14 CIG 022V028 SLP228 $
  • 211856Z AUTO 31011G17KT 10SM SCT034 SCT060 BKN075 BKN090 07/M01 A3018 RMK AO2 RAB25E38RAB38E38 SLP227 P0000 T00671010 $
  • 211838Z AUTO 30006KT 10SM FEW034 FEW050 BKN060 BKN075 BKN090 05/M01 A3018 RMK AO2 RAB25E38RAB38 SLP228 $
  • 211825Z AUTO 27010G17KT 10SM -RA SCT035 SCT045 BKN060 OVC070 05/M02 A3018 RMK AO2 RAB25 SLP228 $
  • 211756Z 28013G18KT 10SM BKN030 BKN036 OVC055 06/M01 A3018 RMK AO2A RAB1657E14UPB14E19UPB19E19 SLP228 P0000 60000 T00551010 10057 21004 58006 $

TAF TAF KFTK
Valid from the 21 at 19:00 until the 23 at 01:00 UTC


211900Z 2119/2301 28010KT 9000 -SHRA BKN020 BKN050 620208 QNH3013INS
BECMG 2200/2201 VRB06KT 9999 NSW SCT100 QNH3010INS TX07/2121Z TNM01/2209Z LAST NO AMDS AFT 2203 NEXT 2211
KZID FIR / North America



MET'MAP, your aeronautical weather chart ! - Copyright ORBIFLY December 2007 - Disclaimer

ORBIFLY MET'MAP TEAM :

Programming & Development : Alexandra Zaïnal
Concept & original design : Baudouin d'Aumeries
Assistance for programming : Marc-Olivier Méhu
Technical & hardware support : Manuel Goepfert

Contact : metmap@orbifly.com




SOURCES & CREDITS :

   NOAA       Earth
Advisory